Luystown, Missouri
Current Conditions -  °F | °C
As of 3:53 AM on Sunday 23 Nov 2014 (Local Time) from KJEF Reporting Station
Broken Clouds Broken Clouds  
Wind Chill: 56°   Ceiling: 9500
Heat Index: 56°   Visibility: 10mi
Dew Point: 49°   Wind: 9mph
Humidity: 77%   Direction: 140°SE
Pressure: 29.67"   Gusts: NA
Location:  38.559°N, 91.9214°W
Report Text: KJEF 230953Z AUTO 14008KT 10SM BKN095 13/09 A2967 RMK AO2 SLP036 T01330094
Loading
Personal Weather Stations






























Interactive Weather Map New forecast layout! Learn more

10-Day Weather Forecast

Advertisements
Track Severe Weather on mobile